Cismont, Virginia
Current Conditions -  °F | °C
As of 3:53 PM on Wednesday 26 Nov 2014 (Local Time) from KCHO Reporting Station
Light Rain Light Rain  
Wind Chill: 37°   Ceiling: 4500
Heat Index: 37°   Visibility: 5mi
Dew Point: 35°   Wind: 0mph
Humidity: 93%   Direction: NA
Pressure: 29.96"   Gusts: NA
Location:  38.0053°N, 78.3345°W
Report Text: KCHO 262053Z 00000KT 5SM -RA BR BKN045 OVC055 03/02 A2996 RMK AO2 SLP146 P0001 60010 I1000 I3000 T00280017 51009
Loading
Personal Weather Stations






























Interactive Weather Map New forecast layout! Learn more

10-Day Weather Forecast

Advertisements
Track Severe Weather on mobile